sensor_id;sensor_type;location;lat;lon;timestamp;temperature;humidity
56436;DHT22;42335;44.872;20.658;2023-07-29T00:00:38;563.60;2432.00
56436;DHT22;42335;44.872;20.658;2023-07-29T00:03:05;563.40;2432.00
56436;DHT22;42335;44.872;20.658;2023-07-29T00:05:30;563.20;2432.00
56436;DHT22;42335;44.872;20.658;2023-07-29T00:07:56;563.20;2432.00
56436;DHT22;42335;44.872;20.658;2023-07-29T00:10:22;563.40;2432.00
56436;DHT22;42335;44.872;20.658;2023-07-29T00:12:47;563.20;2432.00
56436;DHT22;42335;44.872;20.658;2023-07-29T00:15:13;563.40;2432.00
56436;DHT22;42335;44.872;20.658;2023-07-29T00:17:39;563.70;2432.00
56436;DHT22;42335;44.872;20.658;2023-07-29T00:20:06;563.50;2432.00
56436;DHT22;42335;44.872;20.658;2023-07-29T00:22:32;563.50;2432.00
56436;DHT22;42335;44.872;20.658;2023-07-29T00:24:58;563.20;2432.00
56436;DHT22;42335;44.872;20.658;2023-07-29T00:27:24;563.30;2432.00
56436;DHT22;42335;44.872;20.658;2023-07-29T00:29:50;563.40;2432.00
56436;DHT22;42335;44.872;20.658;2023-07-29T00:32:16;563.20;2432.00
56436;DHT22;42335;44.872;20.658;2023-07-29T01:51:52;537.70;2406.40
56436;DHT22;42335;44.872;20.658;2023-07-29T01:54:18;537.70;2406.40
56436;DHT22;42335;44.872;20.658;2023-07-29T01:56:44;512.90;2380.80
56436;DHT22;42335;44.872;20.658;2023-07-29T01:59:09;512.90;2380.80
56436;DHT22;42335;44.872;20.658;2023-07-29T02:01:35;537.60;2406.40
56436;DHT22;42335;44.872;20.658;2023-07-29T02:04:01;512.90;2380.80
56436;DHT22;42335;44.872;20.658;2023-07-29T02:06:27;537.60;2406.40
56436;DHT22;42335;44.872;20.658;2023-07-29T02:08:53;537.60;2406.40
56436;DHT22;42335;44.872;20.658;2023-07-29T02:11:19;512.90;2380.80
56436;DHT22;42335;44.872;20.658;2023-07-29T02:13:46;537.60;2406.40
56436;DHT22;42335;44.872;20.658;2023-07-29T02:16:11;537.60;2406.40
56436;DHT22;42335;44.872;20.658;2023-07-29T02:18:37;512.60;2380.80
56436;DHT22;42335;44.872;20.658;2023-07-29T02:21:02;512.80;2380.80
56436;DHT22;42335;44.872;20.658;2023-07-29T02:23:28;512.90;2380.80
56436;DHT22;42335;44.872;20.658;2023-07-29T02:25:54;512.70;2380.80
56436;DHT22;42335;44.872;20.658;2023-07-29T02:28:20;512.70;2380.80
56436;DHT22;42335;44.872;20.658;2023-07-29T02:30:45;512.70;2380.80
56436;DHT22;42335;44.872;20.658;2023-07-29T02:33:11;512.80;2380.80
56436;DHT22;42335;44.872;20.658;2023-07-29T02:35:37;512.90;2380.80
56436;DHT22;42335;44.872;20.658;2023-07-29T02:38:02;512.30;2380.80
56436;DHT22;42335;44.872;20.658;2023-07-29T02:40:28;512.00;2380.80
56436;DHT22;42335;44.872;20.658;2023-07-29T02:42:54;512.10;2380.80
56436;DHT22;42335;44.872;20.658;2023-07-29T02:45:20;512.10;2380.80
56436;DHT22;42335;44.872;20.658;2023-07-29T02:47:46;512.30;2380.80
56436;DHT22;42335;44.872;20.658;2023-07-29T02:50:12;512.30;2380.80
56436;DHT22;42335;44.872;20.658;2023-07-29T02:52:38;512.30;2380.80
56436;DHT22;42335;44.872;20.658;2023-07-29T02:55:04;512.40;2380.80
56436;DHT22;42335;44.872;20.658;2023-07-29T02:57:29;512.40;2380.80
56436;DHT22;42335;44.872;20.658;2023-07-29T02:59:55;512.30;2380.80
56436;DHT22;42335;44.872;20.658;2023-07-29T03:29:14;512.20;2380.80
56436;DHT22;42335;44.872;20.658;2023-07-29T03:31:39;487.20;2380.80
56436;DHT22;42335;44.872;20.658;2023-07-29T03:34:05;487.20;2380.80
56436;DHT22;42335;44.872;20.658;2023-07-29T03:41:23;512.30;2380.80
56436;DHT22;42335;44.872;20.658;2023-07-29T03:43:49;487.00;2380.80
56436;DHT22;42335;44.872;20.658;2023-07-29T03:46:15;487.20;2380.80
56436;DHT22;42335;44.872;20.658;2023-07-29T03:48:44;487.30;2380.80
56436;DHT22;42335;44.872;20.658;2023-07-29T03:51:10;487.10;2380.80
56436;DHT22;42335;44.872;20.658;2023-07-29T03:53:36;487.00;2380.80
56436;DHT22;42335;44.872;20.658;2023-07-29T03:56:01;487.30;2380.80
56436;DHT22;42335;44.872;20.658;2023-07-29T03:58:27;512.00;2380.80
56436;DHT22;42335;44.872;20.658;2023-07-29T04:00:53;487.30;2380.80
56436;DHT22;42335;44.872;20.658;2023-07-29T04:03:18;487.20;2380.80
56436;DHT22;42335;44.872;20.658;2023-07-29T04:05:44;487.30;2380.80
56436;DHT22;42335;44.872;20.658;2023-07-29T04:08:10;512.00;2380.80
56436;DHT22;42335;44.872;20.658;2023-07-29T04:13:03;512.90;2380.80
56436;DHT22;42335;44.872;20.658;2023-07-29T04:15:28;512.70;2380.80
56436;DHT22;42335;44.872;20.658;2023-07-29T04:17:55;512.30;2380.80
56436;DHT22;42335;44.872;20.658;2023-07-29T04:20:21;512.30;2380.80
56436;DHT22;42335;44.872;20.658;2023-07-29T04:22:46;512.30;2380.80
56436;DHT22;42335;44.872;20.658;2023-07-29T04:25:12;512.50;2380.80
56436;DHT22;42335;44.872;20.658;2023-07-29T04:27:38;512.50;2380.80
56436;DHT22;42335;44.872;20.658;2023-07-29T04:30:05;512.30;2380.80
56436;DHT22;42335;44.872;20.658;2023-07-29T04:32:31;512.60;2380.80
56436;DHT22;42335;44.872;20.658;2023-07-29T04:34:56;512.80;2380.80
56436;DHT22;42335;44.872;20.658;2023-07-29T04:37:22;537.90;2406.40
56436;DHT22;42335;44.872;20.658;2023-07-29T04:39:48;537.80;2406.40
56436;DHT22;42335;44.872;20.658;2023-07-29T04:42:13;512.90;2380.80
56436;DHT22;42335;44.872;20.658;2023-07-29T04:44:39;537.60;2406.40
56436;DHT22;42335;44.872;20.658;2023-07-29T04:47:07;538.00;2406.40
56436;DHT22;42335;44.872;20.658;2023-07-29T04:49:32;537.80;2406.40
56436;DHT22;42335;44.872;20.658;2023-07-29T04:51:58;537.80;2406.40
56436;DHT22;42335;44.872;20.658;2023-07-29T04:54:24;537.80;2406.40
56436;DHT22;42335;44.872;20.658;2023-07-29T04:56:49;538.20;2406.40
56436;DHT22;42335;44.872;20.658;2023-07-29T04:59:15;538.50;2406.40
56436;DHT22;42335;44.872;20.658;2023-07-29T05:01:41;538.50;2406.40
56436;DHT22;42335;44.872;20.658;2023-07-29T05:28:42;589.00;2432.00
56436;DHT22;42335;44.872;20.658;2023-07-29T05:31:07;589.00;2432.00
56436;DHT22;42335;44.872;20.658;2023-07-29T05:33:33;564.10;2432.00
56436;DHT22;42335;44.872;20.658;2023-07-29T05:35:58;563.70;2432.00
56436;DHT22;42335;44.872;20.658;2023-07-29T05:38:25;563.50;2432.00
56436;DHT22;42335;44.872;20.658;2023-07-29T06:17:29;665.70;2432.00
56436;DHT22;42335;44.872;20.658;2023-07-29T06:19:55;640.90;2432.00
56436;DHT22;42335;44.872;20.658;2023-07-29T06:22:21;640.60;2432.00
56436;DHT22;42335;44.872;20.658;2023-07-29T06:24:46;640.90;2432.00
56436;DHT22;42335;44.872;20.658;2023-07-29T06:27:12;640.70;2432.00
56436;DHT22;42335;44.872;20.658;2023-07-29T06:29:38;640.50;2432.00
56436;DHT22;42335;44.872;20.658;2023-07-29T06:32:04;640.90;2432.00
56436;DHT22;42335;44.872;20.658;2023-07-29T07:42:46;768.30;2227.20
56436;DHT22;42335;44.872;20.658;2023-07-29T07:45:11;768.10;2227.20
56436;DHT22;42335;44.872;20.658;2023-07-29T07:52:29;793.70;2150.40
56436;DHT22;42335;44.872;20.658;2023-07-29T07:54:55;794.00;2124.80
56436;DHT22;42335;44.872;20.658;2023-07-29T07:57:22;793.80;2124.80
56436;DHT22;42335;44.872;20.658;2023-07-29T08:02:14;794.00;2124.80
56436;DHT22;42335;44.872;20.658;2023-07-29T08:04:39;768.90;2099.20
56436;DHT22;42335;44.872;20.658;2023-07-29T08:07:05;768.90;2073.60
56436;DHT22;42335;44.872;20.658;2023-07-29T08:09:31;793.70;2099.20
56436;DHT22;42335;44.872;20.658;2023-07-29T08:11:57;793.70;2099.20
56436;DHT22;42335;44.872;20.658;2023-07-29T08:14:22;794.00;2048.00
56436;DHT22;42335;44.872;20.658;2023-07-29T08:16:48;794.50;1996.80
56436;DHT22;42335;44.872;20.658;2023-07-29T08:19:14;794.20;1996.80
56436;DHT22;42335;44.872;20.658;2023-07-29T08:21:39;819.30;1920.00
56436;DHT22;42335;44.872;20.658;2023-07-29T08:24:05;819.30;1894.40
56436;DHT22;42335;44.872;20.658;2023-07-29T08:26:32;794.40;1920.00
56436;DHT22;42335;44.872;20.658;2023-07-29T08:28:58;794.50;1945.60
56436;DHT22;42335;44.872;20.658;2023-07-29T08:33:50;794.30;1996.80
56436;DHT22;42335;44.872;20.658;2023-07-29T09:03:26;845.40;1766.40
56436;DHT22;42335;44.872;20.658;2023-07-29T10:02:38;921.60;1484.80
56436;DHT22;42335;44.872;20.658;2023-07-29T10:05:05;896.80;1433.60
56436;DHT22;42335;44.872;20.658;2023-07-29T10:07:31;896.90;1433.60
56436;DHT22;42335;44.872;20.658;2023-07-29T10:09:58;896.70;1433.60
56436;DHT22;42335;44.872;20.658;2023-07-29T10:12:25;871.30;1510.40
56436;DHT22;42335;44.872;20.658;2023-07-29T10:14:52;871.30;1484.80
56436;DHT22;42335;44.872;20.658;2023-07-29T10:22:13;845.60;1536.00
56436;DHT22;42335;44.872;20.658;2023-07-29T10:24:43;870.50;1536.00
56436;DHT22;42335;44.872;20.658;2023-07-29T10:27:11;871.30;1510.40
56436;DHT22;42335;44.872;20.658;2023-07-29T10:29:42;896.80;1459.20
56436;DHT22;42335;44.872;20.658;2023-07-29T10:32:11;896.90;1459.20
56436;DHT22;42335;44.872;20.658;2023-07-29T10:34:36;921.70;1433.60
56436;DHT22;42335;44.872;20.658;2023-07-29T10:37:03;947.20;1382.40
56436;DHT22;42335;44.872;20.658;2023-07-29T10:39:38;947.30;1382.40
56436;DHT22;42335;44.872;20.658;2023-07-29T10:42:06;947.20;1356.80
56436;DHT22;42335;44.872;20.658;2023-07-29T10:47:24;947.90;1331.20
56436;DHT22;42335;44.872;20.658;2023-07-29T10:49:58;947.90;1331.20
56436;DHT22;42335;44.872;20.658;2023-07-29T10:54:59;922.00;1408.00
56436;DHT22;42335;44.872;20.658;2023-07-29T10:59:58;922.40;1356.80
56436;DHT22;42335;44.872;20.658;2023-07-29T11:05:17;948.10;1305.60
56436;DHT22;42335;44.872;20.658;2023-07-29T11:07:51;948.10;1331.20
56436;DHT22;42335;44.872;20.658;2023-07-29T11:10:17;948.10;1305.60
56436;DHT22;42335;44.872;20.658;2023-07-29T11:12:48;947.90;1305.60
56436;DHT22;42335;44.872;20.658;2023-07-29T11:22:36;947.60;1305.60
56436;DHT22;42335;44.872;20.658;2023-07-29T11:25:02;947.50;1331.20
56436;DHT22;42335;44.872;20.658;2023-07-29T11:27:28;947.30;1331.20
56436;DHT22;42335;44.872;20.658;2023-07-29T11:30:02;922.40;1331.20
56436;DHT22;42335;44.872;20.658;2023-07-29T11:34:54;947.20;1331.20
56436;DHT22;42335;44.872;20.658;2023-07-29T11:37:20;922.50;1331.20
56436;DHT22;42335;44.872;20.658;2023-07-29T11:39:48;922.50;1331.20
56436;DHT22;42335;44.872;20.658;2023-07-29T11:42:15;922.00;1331.20
56436;DHT22;42335;44.872;20.658;2023-07-29T11:44:41;922.50;1331.20
56436;DHT22;42335;44.872;20.658;2023-07-29T11:47:09;922.30;1305.60
56436;DHT22;42335;44.872;20.658;2023-07-29T11:49:35;947.20;1254.40
56436;DHT22;42335;44.872;20.658;2023-07-29T11:52:02;947.60;1254.40
56436;DHT22;42335;44.872;20.658;2023-07-29T11:59:21;922.50;1280.00
56436;DHT22;42335;44.872;20.658;2023-07-29T12:01:47;871.30;1382.40
56436;DHT22;42335;44.872;20.658;2023-07-29T12:04:13;921.60;1331.20
56436;DHT22;42335;44.872;20.658;2023-07-29T12:06:39;922.10;1305.60
56436;DHT22;42335;44.872;20.658;2023-07-29T12:09:05;947.60;1254.40
56436;DHT22;42335;44.872;20.658;2023-07-29T12:11:33;947.40;1254.40
56436;DHT22;42335;44.872;20.658;2023-07-29T12:14:00;947.40;1254.40
56436;DHT22;42335;44.872;20.658;2023-07-29T12:16:26;947.70;1280.00
56436;DHT22;42335;44.872;20.658;2023-07-29T12:43:23;922.30;1280.00
56436;DHT22;42335;44.872;20.658;2023-07-29T12:45:52;922.20;1280.00
56436;DHT22;42335;44.872;20.658;2023-07-29T12:48:18;896.40;1331.20
56436;DHT22;42335;44.872;20.658;2023-07-29T12:50:43;896.70;1305.60
56436;DHT22;42335;44.872;20.658;2023-07-29T12:53:09;921.90;1331.20
56436;DHT22;42335;44.872;20.658;2023-07-29T12:55:38;921.70;1331.20
56436;DHT22;42335;44.872;20.658;2023-07-29T12:58:04;921.80;1305.60
56436;DHT22;42335;44.872;20.658;2023-07-29T13:00:30;922.10;1305.60
56436;DHT22;42335;44.872;20.658;2023-07-29T13:02:56;922.50;1305.60
56436;DHT22;42335;44.872;20.658;2023-07-29T13:05:22;947.40;1254.40
56436;DHT22;42335;44.872;20.658;2023-07-29T13:07:47;947.60;1228.80
56436;DHT22;42335;44.872;20.658;2023-07-29T13:10:13;947.70;1203.20
56436;DHT22;42335;44.872;20.658;2023-07-29T13:15:06;948.10;1228.80
56436;DHT22;42335;44.872;20.658;2023-07-29T13:17:33;947.80;1228.80
56436;DHT22;42335;44.872;20.658;2023-07-29T13:19:58;947.60;1228.80
56436;DHT22;42335;44.872;20.658;2023-07-29T13:22:24;972.80;1228.80
56436;DHT22;42335;44.872;20.658;2023-07-29T13:24:50;973.20;1203.20
56436;DHT22;42335;44.872;20.658;2023-07-29T13:27:16;973.10;1203.20
56436;DHT22;42335;44.872;20.658;2023-07-29T13:29:41;973.10;1203.20
56436;DHT22;42335;44.872;20.658;2023-07-29T13:32:09;973.10;1177.60
56436;DHT22;42335;44.872;20.658;2023-07-29T13:34:34;972.90;1203.20
56436;DHT22;42335;44.872;20.658;2023-07-29T13:37:00;973.00;1177.60
56436;DHT22;42335;44.872;20.658;2023-07-29T13:39:26;972.80;1228.80
56436;DHT22;42335;44.872;20.658;2023-07-29T13:41:53;973.00;1203.20
56436;DHT22;42335;44.872;20.658;2023-07-29T13:44:19;972.80;1203.20
56436;DHT22;42335;44.872;20.658;2023-07-29T13:46:44;947.50;1228.80
56436;DHT22;42335;44.872;20.658;2023-07-29T13:49:10;947.90;1203.20
56436;DHT22;42335;44.872;20.658;2023-07-29T13:51:36;947.90;1203.20
56436;DHT22;42335;44.872;20.658;2023-07-29T13:54:02;947.30;1228.80
56436;DHT22;42335;44.872;20.658;2023-07-29T13:56:28;922.30;1254.40
56436;DHT22;42335;44.872;20.658;2023-07-29T13:58:53;947.20;1228.80
56436;DHT22;42335;44.872;20.658;2023-07-29T14:03:45;922.50;1254.40
56436;DHT22;42335;44.872;20.658;2023-07-29T14:06:10;922.40;1254.40
56436;DHT22;42335;44.872;20.658;2023-07-29T14:08:36;922.50;1254.40
56436;DHT22;42335;44.872;20.658;2023-07-29T14:11:02;922.50;1254.40
56436;DHT22;42335;44.872;20.658;2023-07-29T14:13:27;922.50;1254.40
56436;DHT22;42335;44.872;20.658;2023-07-29T14:15:53;922.30;1280.00
56436;DHT22;42335;44.872;20.658;2023-07-29T14:18:19;922.40;1254.40
56436;DHT22;42335;44.872;20.658;2023-07-29T14:20:45;922.30;1280.00
56436;DHT22;42335;44.872;20.658;2023-07-29T14:23:11;922.30;1254.40
56436;DHT22;42335;44.872;20.658;2023-07-29T14:25:36;922.40;1254.40
56436;DHT22;42335;44.872;20.658;2023-07-29T14:28:02;922.40;1280.00
56436;DHT22;42335;44.872;20.658;2023-07-29T14:30:28;921.80;1331.20
56436;DHT22;42335;44.872;20.658;2023-07-29T14:32:53;921.90;1280.00
56436;DHT22;42335;44.872;20.658;2023-07-29T14:35:19;922.00;1254.40
56436;DHT22;42335;44.872;20.658;2023-07-29T14:37:45;922.00;1254.40
56436;DHT22;42335;44.872;20.658;2023-07-29T14:40:10;896.90;1280.00
56436;DHT22;42335;44.872;20.658;2023-07-29T14:42:36;896.90;1280.00
56436;DHT22;42335;44.872;20.658;2023-07-29T14:45:02;871.10;1356.80
56436;DHT22;42335;44.872;20.658;2023-07-29T14:54:46;896.00;1331.20
56436;DHT22;42335;44.872;20.658;2023-07-29T14:57:11;871.30;1331.20
56436;DHT22;42335;44.872;20.658;2023-07-29T14:59:37;871.20;1382.40
56436;DHT22;42335;44.872;20.658;2023-07-29T15:02:03;871.20;1356.80
56436;DHT22;42335;44.872;20.658;2023-07-29T15:04:29;871.20;1356.80
56436;DHT22;42335;44.872;20.658;2023-07-29T15:06:55;871.30;1356.80
56436;DHT22;42335;44.872;20.658;2023-07-29T15:09:20;871.20;1356.80
56436;DHT22;42335;44.872;20.658;2023-07-29T15:11:46;871.20;1356.80
56436;DHT22;42335;44.872;20.658;2023-07-29T16:46:52;819.30;1561.60
56436;DHT22;42335;44.872;20.658;2023-07-29T17:18:30;794.00;1612.80
56436;DHT22;42335;44.872;20.658;2023-07-29T17:20:56;793.60;1612.80
56436;DHT22;42335;44.872;20.658;2023-07-29T17:23:22;768.90;1612.80
56436;DHT22;42335;44.872;20.658;2023-07-29T17:37:57;768.90;1638.40
56436;DHT22;42335;44.872;20.658;2023-07-29T17:40:23;768.70;1664.00
56436;DHT22;42335;44.872;20.658;2023-07-29T17:42:49;768.40;1664.00
56436;DHT22;42335;44.872;20.658;2023-07-29T17:45:14;768.40;1664.00
56436;DHT22;42335;44.872;20.658;2023-07-29T17:47:40;768.30;1689.60
56436;DHT22;42335;44.872;20.658;2023-07-29T17:50:06;768.10;1689.60
56436;DHT22;42335;44.872;20.658;2023-07-29T17:52:32;768.10;1689.60
56436;DHT22;42335;44.872;20.658;2023-07-29T17:54:58;768.10;1715.20
56436;DHT22;42335;44.872;20.658;2023-07-29T17:57:24;768.20;1740.80
56436;DHT22;42335;44.872;20.658;2023-07-29T17:59:49;743.30;1740.80
56436;DHT22;42335;44.872;20.658;2023-07-29T18:02:15;743.30;1740.80
56436;DHT22;42335;44.872;20.658;2023-07-29T18:04:40;743.30;1766.40
56436;DHT22;42335;44.872;20.658;2023-07-29T18:07:06;743.20;1766.40
56436;DHT22;42335;44.872;20.658;2023-07-29T18:09:32;743.10;1766.40
56436;DHT22;42335;44.872;20.658;2023-07-29T18:11:57;743.00;1792.00
56436;DHT22;42335;44.872;20.658;2023-07-29T18:14:26;743.00;1792.00
56436;DHT22;42335;44.872;20.658;2023-07-29T18:16:53;743.00;1817.60
56436;DHT22;42335;44.872;20.658;2023-07-29T18:19:18;742.90;1843.20
56436;DHT22;42335;44.872;20.658;2023-07-29T18:21:46;742.90;1843.20
56436;DHT22;42335;44.872;20.658;2023-07-29T18:24:12;742.80;1868.80
56436;DHT22;42335;44.872;20.658;2023-07-29T18:26:38;742.80;1894.40
56436;DHT22;42335;44.872;20.658;2023-07-29T18:29:04;742.80;1894.40
56436;DHT22;42335;44.872;20.658;2023-07-29T18:31:29;742.60;1894.40
56436;DHT22;42335;44.872;20.658;2023-07-29T18:33:55;742.60;1894.40
56436;DHT22;42335;44.872;20.658;2023-07-29T18:36:21;742.50;1920.00
56436;DHT22;42335;44.872;20.658;2023-07-29T18:38:46;742.50;1945.60
56436;DHT22;42335;44.872;20.658;2023-07-29T18:41:12;742.40;1945.60
56436;DHT22;42335;44.872;20.658;2023-07-29T18:43:38;742.40;1971.20
56436;DHT22;42335;44.872;20.658;2023-07-29T18:46:03;717.70;1920.00
56436;DHT22;42335;44.872;20.658;2023-07-29T18:48:29;717.70;1945.60
56436;DHT22;42335;44.872;20.658;2023-07-29T18:50:55;717.70;1971.20
56436;DHT22;42335;44.872;20.658;2023-07-29T18:53:20;717.60;1996.80
56436;DHT22;42335;44.872;20.658;2023-07-29T18:55:46;717.60;1996.80
56436;DHT22;42335;44.872;20.658;2023-07-29T18:58:12;717.50;1996.80
56436;DHT22;42335;44.872;20.658;2023-07-29T19:00:37;717.50;1996.80
56436;DHT22;42335;44.872;20.658;2023-07-29T19:03:03;717.50;2022.40
56436;DHT22;42335;44.872;20.658;2023-07-29T19:05:29;717.40;2048.00
56436;DHT22;42335;44.872;20.658;2023-07-29T19:07:54;717.40;2073.60
56436;DHT22;42335;44.872;20.658;2023-07-29T19:10:20;717.30;2124.80
56436;DHT22;42335;44.872;20.658;2023-07-29T19:12:47;717.30;2124.80
56436;DHT22;42335;44.872;20.658;2023-07-29T19:15:12;717.20;2124.80
56436;DHT22;42335;44.872;20.658;2023-07-29T19:17:38;717.20;2124.80
56436;DHT22;42335;44.872;20.658;2023-07-29T19:20:04;717.20;2150.40
56436;DHT22;42335;44.872;20.658;2023-07-29T19:22:31;717.20;2176.00
56436;DHT22;42335;44.872;20.658;2023-07-29T19:24:57;717.10;2201.60
56436;DHT22;42335;44.872;20.658;2023-07-29T19:27:24;717.10;2201.60
56436;DHT22;42335;44.872;20.658;2023-07-29T19:29:50;717.00;2227.20
56436;DHT22;42335;44.872;20.658;2023-07-29T19:32:15;717.00;2227.20
56436;DHT22;42335;44.872;20.658;2023-07-29T19:34:41;717.10;2227.20
56436;DHT22;42335;44.872;20.658;2023-07-29T19:37:07;716.90;2252.80
56436;DHT22;42335;44.872;20.658;2023-07-29T19:39:33;716.80;2278.40
56436;DHT22;42335;44.872;20.658;2023-07-29T19:41:58;716.80;2278.40
56436;DHT22;42335;44.872;20.658;2023-07-29T19:44:24;716.90;2304.00
56436;DHT22;42335;44.872;20.658;2023-07-29T19:46:50;692.00;2304.00
56436;DHT22;42335;44.872;20.658;2023-07-29T19:49:16;692.10;2329.60
56436;DHT22;42335;44.872;20.658;2023-07-29T19:51:41;691.90;2329.60
56436;DHT22;42335;44.872;20.658;2023-07-29T19:54:07;691.90;2380.80
56436;DHT22;42335;44.872;20.658;2023-07-29T19:56:33;691.90;2380.80
56436;DHT22;42335;44.872;20.658;2023-07-29T19:58:58;691.90;2432.00
56436;DHT22;42335;44.872;20.658;2023-07-29T20:01:24;691.90;2432.00
56436;DHT22;42335;44.872;20.658;2023-07-29T20:03:49;692.00;2432.00
56436;DHT22;42335;44.872;20.658;2023-07-29T20:06:15;692.10;2432.00
56436;DHT22;42335;44.872;20.658;2023-07-29T20:08:41;691.80;2432.00
56436;DHT22;42335;44.872;20.658;2023-07-29T20:11:08;691.70;2432.00
56436;DHT22;42335;44.872;20.658;2023-07-29T20:13:34;691.80;2432.00
56436;DHT22;42335;44.872;20.658;2023-07-29T20:15:59;691.60;2432.00
56436;DHT22;42335;44.872;20.658;2023-07-29T20:18:25;691.60;2432.00
56436;DHT22;42335;44.872;20.658;2023-07-29T20:20:51;691.30;2432.00
56436;DHT22;42335;44.872;20.658;2023-07-29T20:23:17;666.50;2432.00
56436;DHT22;42335;44.872;20.658;2023-07-29T20:25:42;666.30;2432.00
56436;DHT22;42335;44.872;20.658;2023-07-29T20:28:08;666.20;2432.00
56436;DHT22;42335;44.872;20.658;2023-07-29T20:30:34;666.30;2432.00
56436;DHT22;42335;44.872;20.658;2023-07-29T21:04:39;691.20;2432.00
56436;DHT22;42335;44.872;20.658;2023-07-29T21:07:05;666.30;2432.00
56436;DHT22;42335;44.872;20.658;2023-07-29T21:09:33;666.20;2432.00
56436;DHT22;42335;44.872;20.658;2023-07-29T21:12:00;666.20;2432.00
56436;DHT22;42335;44.872;20.658;2023-07-29T21:14:26;666.00;2432.00
56436;DHT22;42335;44.872;20.658;2023-07-29T21:16:52;666.00;2432.00
56436;DHT22;42335;44.872;20.658;2023-07-29T21:19:17;665.90;2432.00
56436;DHT22;42335;44.872;20.658;2023-07-29T21:21:43;665.90;2432.00
56436;DHT22;42335;44.872;20.658;2023-07-29T21:24:09;665.90;2432.00
56436;DHT22;42335;44.872;20.658;2023-07-29T21:26:34;665.90;2432.00
56436;DHT22;42335;44.872;20.658;2023-07-29T21:29:00;665.80;2432.00
56436;DHT22;42335;44.872;20.658;2023-07-29T21:31:26;665.70;2432.00
56436;DHT22;42335;44.872;20.658;2023-07-29T21:33:52;665.80;2432.00
56436;DHT22;42335;44.872;20.658;2023-07-29T21:36:17;665.70;2432.00
56436;DHT22;42335;44.872;20.658;2023-07-29T21:38:43;665.70;2432.00
56436;DHT22;42335;44.872;20.658;2023-07-29T21:41:09;665.90;2432.00
56436;DHT22;42335;44.872;20.658;2023-07-29T21:43:34;665.60;2432.00
56436;DHT22;42335;44.872;20.658;2023-07-29T21:46:00;665.70;2432.00
56436;DHT22;42335;44.872;20.658;2023-07-29T21:48:26;665.60;2432.00
56436;DHT22;42335;44.872;20.658;2023-07-29T21:50:55;665.60;2432.00
56436;DHT22;42335;44.872;20.658;2023-07-29T21:53:21;665.70;2432.00
56436;DHT22;42335;44.872;20.658;2023-07-29T21:55:47;640.90;2432.00
56436;DHT22;42335;44.872;20.658;2023-07-29T21:58:13;665.70;2432.00
